createdAt,value
2022-09-02T00:00:25.515Z,99.20
2022-09-02T00:02:55.418Z,94.13
2022-09-02T00:05:25.173Z,103.15
2022-09-02T00:07:55.699Z,96.72
2022-09-02T00:10:30.066Z,102.35
2022-09-02T00:13:02.146Z,98.90
2022-09-02T00:15:35.239Z,105.22
2022-09-02T00:18:14.228Z,96.97
2022-09-02T00:20:48.889Z,96.72
2022-09-02T00:23:18.648Z,97.50
2022-09-02T00:25:50.376Z,97.18
2022-09-02T00:28:23.154Z,98.53
2022-09-02T00:30:54.760Z,105.78
2022-09-02T00:33:24.868Z,95.63
2022-09-02T00:35:54.680Z,102.05
2022-09-02T00:38:24.027Z,95.95
2022-09-02T00:40:55.144Z,96.82
2022-09-02T00:43:38.982Z,106.35
2022-09-02T00:46:12.430Z,99.65
2022-09-02T00:48:48.446Z,96.60
2022-09-02T00:51:21.900Z,88.65
2022-09-02T00:53:52.372Z,96.35
2022-09-02T00:56:32.495Z,90.53
2022-09-02T00:59:04.888Z,93.75
2022-09-02T01:01:34.590Z,99.50
2022-09-02T01:04:06.293Z,90.35
2022-09-02T01:06:35.948Z,90.85
2022-09-02T01:09:12.047Z,101.28
2022-09-02T01:11:48.072Z,100.78
2022-09-02T01:14:18.632Z,95.82
2022-09-02T01:16:52.582Z,100.85
2022-09-02T01:19:25.920Z,97.85
2022-09-02T01:21:59.684Z,102.82
2022-09-02T01:24:33.085Z,92.25
2022-09-02T01:27:02.462Z,93.13
2022-09-02T01:29:32.002Z,104.38
2022-09-02T01:32:02.627Z,93.72
2022-09-02T01:34:32.038Z,92.30
2022-09-02T01:37:03.346Z,100.68
2022-09-02T01:39:32.626Z,92.93
2022-09-02T01:42:03.188Z,93.70
2022-09-02T01:44:39.045Z,88.45
2022-09-02T01:47:08.266Z,102.28
2022-09-02T01:49:40.751Z,94.53
2022-09-02T01:52:11.837Z,94.85
2022-09-02T01:54:41.547Z,103.28
2022-09-02T01:57:11.197Z,108.63
2022-09-02T01:59:43.881Z,100.70
2022-09-02T02:02:13.228Z,99.40
2022-09-02T02:04:46.208Z,98.57
2022-09-02T02:07:22.621Z,101.03
2022-09-02T02:09:53.551Z,101.32
2022-09-02T02:12:23.638Z,99.47
2022-09-02T02:14:53.505Z,90.15
2022-09-02T02:17:24.549Z,100.32
2022-09-02T02:19:53.672Z,100.43
2022-09-02T02:22:24.395Z,104.32
2022-09-02T02:24:53.771Z,105.90
2022-09-02T02:27:22.980Z,110.55
2022-09-02T02:29:52.462Z,94.70
2022-09-02T02:32:26.182Z,94.32
2022-09-02T02:34:56.392Z,99.10
2022-09-02T02:37:27.739Z,94.32
2022-09-02T02:39:57.509Z,105.95
2022-09-02T02:42:29.550Z,91.38
2022-09-02T02:44:59.206Z,99.43
2022-09-02T02:47:29.043Z,101.72
2022-09-02T02:49:58.507Z,86.70
2022-09-02T02:52:29.510Z,101.82
2022-09-02T02:54:59.249Z,90.28
2022-09-02T02:57:28.564Z,99.82
2022-09-02T02:59:58.162Z,103.40
2022-09-02T03:02:27.626Z,89.20
2022-09-02T03:04:57.106Z,100.20
2022-09-02T03:07:28.386Z,94.50
2022-09-02T03:09:57.809Z,100.35
2022-09-02T03:12:27.236Z,92.15
2022-09-02T03:14:56.881Z,103.25
2022-09-02T03:17:27.258Z,97.72
2022-09-02T03:19:59.665Z,94.47
2022-09-02T03:22:35.928Z,92.43
2022-09-02T03:25:08.366Z,93.32
2022-09-02T03:27:39.863Z,92.25
2022-09-02T03:30:12.811Z,88.70
2022-09-02T03:32:43.209Z,97.15
2022-09-02T03:35:19.259Z,96.55
2022-09-02T03:37:51.903Z,104.13
2022-09-02T03:40:24.515Z,88.38
2022-09-02T03:43:00.139Z,100.20
2022-09-02T03:45:32.141Z,93.93
2022-09-02T03:48:06.703Z,93.65
2022-09-02T03:50:44.274Z,102.22
2022-09-02T03:53:20.543Z,96.43
2022-09-02T03:55:58.729Z,97.05
2022-09-02T03:58:30.133Z,96.15
2022-09-02T04:01:02.441Z,99.80
2022-09-02T04:03:33.417Z,95.18
2022-09-02T04:06:04.214Z,99.93
2022-09-02T04:08:35.368Z,92.18
2022-09-02T04:11:09.752Z,97.47
2022-09-02T04:13:39.943Z,104.68
2022-09-02T04:16:11.830Z,97.82
2022-09-02T04:18:41.570Z,111.07
2022-09-02T04:21:13.958Z,93.57
2022-09-02T04:23:45.335Z,100.50
2022-09-02T04:26:18.688Z,102.65
2022-09-02T04:28:48.791Z,91.95
2022-09-02T04:31:22.577Z,86.55
2022-09-02T04:33:53.354Z,106.43
2022-09-02T04:36:24.299Z,98.88
2022-09-02T04:38:59.970Z,97.03
2022-09-02T04:41:34.723Z,93.38
2022-09-02T04:44:08.312Z,92.88
2022-09-02T04:46:41.742Z,94.55
2022-09-02T04:49:16.009Z,94.88
2022-09-02T04:51:46.987Z,98.93
2022-09-02T04:54:18.492Z,95.70
2022-09-02T04:56:51.018Z,100.20
2022-09-02T04:59:22.079Z,102.55
2022-09-02T05:02:05.230Z,114.90
2022-09-02T05:04:34.708Z,104.50
2022-09-02T05:07:04.940Z,96.82
2022-09-02T05:09:42.129Z,105.05
2022-09-02T05:12:11.977Z,95.80
2022-09-02T05:14:54.702Z,104.07
2022-09-02T05:17:26.959Z,117.53
2022-09-02T05:19:57.148Z,93.70
2022-09-02T05:22:29.389Z,113.00
2022-09-02T05:25:02.792Z,97.03
2022-09-02T05:27:33.285Z,101.43
2022-09-02T05:30:03.573Z,108.15
2022-09-02T05:32:37.708Z,110.30
2022-09-02T05:35:09.195Z,106.78
2022-09-02T05:37:39.179Z,101.20
2022-09-02T05:40:14.753Z,101.78
2022-09-02T05:42:45.844Z,109.35
2022-09-02T05:45:19.019Z,123.72
2022-09-02T05:47:49.614Z,118.45
2022-09-02T05:50:20.678Z,119.25
2022-09-02T05:52:52.664Z,117.13
2022-09-02T05:55:25.040Z,115.35
2022-09-02T05:57:54.410Z,109.15
2022-09-02T06:00:25.884Z,115.53
2022-09-02T06:03:01.578Z,121.05
2022-09-02T06:05:38.389Z,115.90
2022-09-02T06:08:21.149Z,110.43
2022-09-02T06:10:52.863Z,122.85
2022-09-02T06:13:24.981Z,103.22
2022-09-02T06:15:57.976Z,115.03
2022-09-02T06:18:32.288Z,113.03
2022-09-02T06:21:02.069Z,107.20
2022-09-02T06:23:39.297Z,102.40
2022-09-02T06:26:14.418Z,98.78
2022-09-02T06:28:43.942Z,115.47
2022-09-02T06:31:16.812Z,103.38
2022-09-02T06:33:48.478Z,101.75
2022-09-02T06:36:21.947Z,106.60
2022-09-02T06:39:00.206Z,95.72
2022-09-02T06:41:34.627Z,102.63
2022-09-02T06:44:10.786Z,93.68
2022-09-02T06:46:44.689Z,101.22
2022-09-02T06:49:17.364Z,111.78
2022-09-02T06:51:51.706Z,113.75
2022-09-02T06:54:24.064Z,106.22
2022-09-02T06:57:00.603Z,108.22
2022-09-02T06:59:30.060Z,97.45
2022-09-02T07:02:00.924Z,96.30
2022-09-02T07:04:48.199Z,92.80
2022-09-02T07:07:21.941Z,103.45
2022-09-02T07:09:57.103Z,121.32
2022-09-02T07:12:27.995Z,103.22
2022-09-02T07:15:09.063Z,95.70
2022-09-02T07:17:43.061Z,99.88
2022-09-02T07:20:28.283Z,106.30
2022-09-02T07:23:01.890Z,103.68
2022-09-02T07:25:34.176Z,91.38
2022-09-02T07:28:05.730Z,103.78
2022-09-02T07:30:39.676Z,93.38
2022-09-02T07:33:14.811Z,88.82
2022-09-02T07:35:47.127Z,90.90
2022-09-02T07:38:19.285Z,85.15
2022-09-02T07:40:50.873Z,86.68
2022-09-02T07:43:29.803Z,83.22
2022-09-02T07:46:01.008Z,80.85
2022-09-02T07:48:32.403Z,83.05
2022-09-02T07:51:03.932Z,82.20
2022-09-02T07:53:34.019Z,89.78
2022-09-02T07:56:04.443Z,88.97
2022-09-02T07:58:36.193Z,85.45
2022-09-02T08:01:06.909Z,94.53
2022-09-02T08:03:39.743Z,77.90
2022-09-02T08:06:11.356Z,83.35
2022-09-02T08:08:41.265Z,85.30
2022-09-02T08:11:11.298Z,91.95
2022-09-02T08:13:42.069Z,83.07
2022-09-02T08:16:11.875Z,85.13
2022-09-02T08:18:41.088Z,95.00
2022-09-02T08:21:10.675Z,97.07
2022-09-02T08:23:40.882Z,97.75
2022-09-02T08:26:11.320Z,90.43
2022-09-02T08:28:41.939Z,100.88
2022-09-02T08:31:11.135Z,83.05
2022-09-02T08:33:40.306Z,97.55
2022-09-02T08:36:12.094Z,92.95
2022-09-02T08:38:41.308Z,98.85
2022-09-02T08:41:21.518Z,97.75
2022-09-02T08:43:55.481Z,105.47
2022-09-02T08:46:28.891Z,91.82
2022-09-02T08:49:01.899Z,84.05
2022-09-02T08:51:37.661Z,81.00
2022-09-02T08:54:15.143Z,93.60
2022-09-02T08:56:44.440Z,76.30
2022-09-02T08:59:15.919Z,93.25
2022-09-02T09:01:52.231Z,91.60
2022-09-02T09:04:38.501Z,109.80
2022-09-02T09:07:21.692Z,131.52
2022-09-02T09:10:10.557Z,193.80
2022-09-02T09:13:08.574Z,232.02
2022-09-02T09:15:48.637Z,236.55
2022-09-02T09:18:22.209Z,240.77
2022-09-02T09:20:51.394Z,236.80
2022-09-02T09:23:33.979Z,200.82
2022-09-02T09:26:10.608Z,172.90
2022-09-02T09:28:42.536Z,136.02
2022-09-02T09:31:18.130Z,149.95
2022-09-02T09:33:59.341Z,126.88
2022-09-02T09:36:53.628Z,82.65
2022-09-02T09:39:30.104Z,71.13
2022-09-02T09:42:01.842Z,73.80
2022-09-02T09:44:48.326Z,64.40
2022-09-02T09:47:22.981Z,62.08
2022-09-02T09:49:54.878Z,54.58
2022-09-02T09:55:24.705Z,54.97
2022-09-02T09:58:08.398Z,55.08
2022-09-02T10:00:39.154Z,52.60
2022-09-02T10:03:10.014Z,65.55
2022-09-02T10:05:41.290Z,60.55
2022-09-02T10:08:22.769Z,61.03
2022-09-02T10:11:01.566Z,55.08
2022-09-02T10:13:33.433Z,56.88
2022-09-02T10:16:16.503Z,57.47
2022-09-02T10:18:54.801Z,57.10
2022-09-02T10:21:45.107Z,59.25
2022-09-02T10:24:43.890Z,76.13
2022-09-02T10:27:18.238Z,74.20
2022-09-02T10:30:00.195Z,61.03
2022-09-02T10:33:02.413Z,62.10
2022-09-02T10:35:43.657Z,62.35
2022-09-02T10:38:37.263Z,65.00
2022-09-02T10:41:24.550Z,67.38
2022-09-02T10:44:36.788Z,66.95
2022-09-02T10:47:16.229Z,69.63
2022-09-02T10:50:11.750Z,62.88
2022-09-02T10:53:09.795Z,67.00
2022-09-02T10:55:58.689Z,62.22
2022-09-02T10:58:40.667Z,63.28
2022-09-02T11:01:14.711Z,64.80
2022-09-02T11:04:03.642Z,61.97
2022-09-02T11:06:58.809Z,59.03
2022-09-02T11:09:37.097Z,61.55
2022-09-02T11:12:15.245Z,66.47
2022-09-02T11:15:00.342Z,63.30
2022-09-02T11:17:38.191Z,59.97
2022-09-02T11:20:17.494Z,60.67
2022-09-02T11:22:56.653Z,53.67
2022-09-02T11:25:34.050Z,54.30
2022-09-02T11:28:23.255Z,58.83
2022-09-02T11:31:01.364Z,88.05
2022-09-02T11:33:39.767Z,119.88
2022-09-02T11:36:09.401Z,150.80
2022-09-02T11:38:45.271Z,189.90
2022-09-02T11:41:35.782Z,205.38
2022-09-02T11:44:31.498Z,177.45
2022-09-02T11:47:45.535Z,158.70
2022-09-02T11:50:39.459Z,150.98
2022-09-02T11:53:22.929Z,129.68
2022-09-02T11:55:56.512Z,123.65
2022-09-02T11:58:39.210Z,139.23
2022-09-02T12:01:28.931Z,112.55
2022-09-02T12:07:48.349Z,104.03
2022-09-02T12:11:02.238Z,81.85
2022-09-02T12:13:41.225Z,73.00
2022-09-02T12:16:41.487Z,93.55
2022-09-02T12:19:42.147Z,67.18
2022-09-02T12:22:38.778Z,66.40
2022-09-02T12:25:48.382Z,64.25
2022-09-02T12:28:27.448Z,50.97
2022-09-02T12:31:43.116Z,58.10
2022-09-02T12:34:57.049Z,55.15
2022-09-02T12:37:57.116Z,52.97
2022-09-02T12:40:38.808Z,52.67
2022-09-02T12:43:27.707Z,56.63
2022-09-02T12:46:13.278Z,54.70
2022-09-02T12:49:11.952Z,55.90
2022-09-02T12:51:57.173Z,75.47
2022-09-02T12:54:44.555Z,79.50
2022-09-02T12:57:16.364Z,83.22
2022-09-02T12:59:48.096Z,67.30
2022-09-02T13:02:57.424Z,80.00
2022-09-02T13:05:38.416Z,76.68
2022-09-02T13:08:44.359Z,86.63
2022-09-02T13:11:49.678Z,89.00
2022-09-02T13:14:51.052Z,128.75
2022-09-02T13:17:45.886Z,136.48
2022-09-02T13:21:06.210Z,134.63
2022-09-02T13:24:40.833Z,140.93
2022-09-02T13:27:41.353Z,158.25
2022-09-02T13:30:20.041Z,136.15
2022-09-02T13:33:01.077Z,153.77
2022-09-02T13:35:31.225Z,158.15
2022-09-02T13:38:06.333Z,148.88
2022-09-02T13:40:41.193Z,137.50
2022-09-02T13:43:20.823Z,145.25
2022-09-02T13:45:51.814Z,152.52
2022-09-02T13:48:24.746Z,125.97
2022-09-02T13:50:57.243Z,149.95
2022-09-02T13:56:25.252Z,109.70
2022-09-02T13:58:57.171Z,101.90
2022-09-02T14:01:30.598Z,100.43
2022-09-02T14:06:42.511Z,97.57
2022-09-02T14:09:22.347Z,99.15
2022-09-02T14:11:53.262Z,93.28
2022-09-02T14:14:26.067Z,81.40
2022-09-02T14:17:23.661Z,76.75
2022-09-02T14:19:53.968Z,79.63
2022-09-02T14:22:29.957Z,81.28
2022-09-02T14:25:00.763Z,82.20
2022-09-02T14:27:30.110Z,84.38
2022-09-02T14:29:59.797Z,83.63
2022-09-02T14:32:30.240Z,89.03
2022-09-02T14:35:22.085Z,84.45
2022-09-02T14:37:59.288Z,87.07
2022-09-02T14:40:39.463Z,93.07
2022-09-02T14:43:14.796Z,86.07
2022-09-02T14:45:48.870Z,83.43
2022-09-02T14:48:23.674Z,90.72
2022-09-02T14:51:02.832Z,111.30
2022-09-02T14:53:33.179Z,128.85
2022-09-02T14:56:04.288Z,126.60
2022-09-02T14:58:33.526Z,137.43
2022-09-02T15:01:04.738Z,125.63
2022-09-02T15:03:39.406Z,123.28
2022-09-02T15:06:13.149Z,112.80
2022-09-02T15:08:44.606Z,129.70
2022-09-02T15:11:20.362Z,121.95
2022-09-02T15:13:49.623Z,120.63
2022-09-02T15:16:18.919Z,117.93
2022-09-02T15:18:48.138Z,115.10
2022-09-02T15:21:18.163Z,114.65
2022-09-02T15:23:51.057Z,99.32
2022-09-02T15:26:22.110Z,109.00
2022-09-02T15:28:52.093Z,96.53
2022-09-02T15:31:21.814Z,113.85
2022-09-02T15:33:52.522Z,106.18
2022-09-02T15:36:23.633Z,109.50
2022-09-02T15:38:52.820Z,110.00
2022-09-02T15:41:27.230Z,110.40
2022-09-02T15:43:56.797Z,118.45
2022-09-02T15:46:28.869Z,111.72
2022-09-02T15:51:35.381Z,88.38
2022-09-02T15:54:09.195Z,96.13
2022-09-02T15:56:42.376Z,107.72
2022-09-02T15:59:14.734Z,102.93
2022-09-02T16:01:46.639Z,110.68
2022-09-02T16:04:17.015Z,110.38
2022-09-02T16:06:49.272Z,103.13
2022-09-02T16:09:19.805Z,111.00
2022-09-02T16:11:56.254Z,119.68
2022-09-02T16:14:26.577Z,100.53
2022-09-02T16:16:57.572Z,98.13
2022-09-02T16:19:30.344Z,112.22
2022-09-02T16:22:01.923Z,110.97
2022-09-02T16:24:31.711Z,105.75
2022-09-02T16:27:03.295Z,117.75
2022-09-02T16:29:33.115Z,117.10
2022-09-02T16:32:23.718Z,116.47
2022-09-02T16:34:53.487Z,110.72
2022-09-02T16:37:22.847Z,114.72
2022-09-02T16:39:53.381Z,115.90
2022-09-02T16:42:24.716Z,104.88
2022-09-02T16:44:56.438Z,107.80
2022-09-02T16:47:25.604Z,110.57
2022-09-02T16:49:55.209Z,105.75
2022-09-02T16:52:24.454Z,100.68
2022-09-02T16:54:53.762Z,111.28
2022-09-02T16:57:25.376Z,97.90
2022-09-02T16:59:54.774Z,108.30
2022-09-02T17:02:28.318Z,90.70
2022-09-02T17:04:58.041Z,88.85
2022-09-02T17:07:27.300Z,93.75
2022-09-02T17:09:56.411Z,89.18
2022-09-02T17:12:27.040Z,78.55
2022-09-02T17:14:56.406Z,78.22
2022-09-02T17:17:25.592Z,76.63
2022-09-02T17:19:54.847Z,82.97
2022-09-02T17:22:23.970Z,82.30
2022-09-02T17:24:57.082Z,91.13
2022-09-02T17:27:28.366Z,81.25
2022-09-02T17:30:00.096Z,92.55
2022-09-02T17:32:29.389Z,91.85
2022-09-02T17:34:58.798Z,96.75
2022-09-02T17:37:28.047Z,102.15
2022-09-02T17:39:57.296Z,105.63
2022-09-02T17:42:26.871Z,101.28
2022-09-02T17:44:55.985Z,95.28
2022-09-02T17:47:26.076Z,89.93
2022-09-02T17:49:55.226Z,89.82
2022-09-02T17:52:25.951Z,101.25
2022-09-02T17:54:58.086Z,83.47
2022-09-02T17:57:42.746Z,85.00
2022-09-02T18:00:16.192Z,94.18
2022-09-02T18:03:31.270Z,92.88
2022-09-02T18:06:11.801Z,89.93
2022-09-02T18:08:51.494Z,93.25
2022-09-02T18:11:22.500Z,91.00
2022-09-02T18:14:05.754Z,85.55
2022-09-02T18:16:40.074Z,83.70
2022-09-02T18:19:20.372Z,89.05
2022-09-02T18:22:10.416Z,87.53
2022-09-02T18:25:04.288Z,98.72
2022-09-02T18:27:52.626Z,98.47
2022-09-02T18:30:27.551Z,92.28
2022-09-02T18:33:25.194Z,91.88
2022-09-02T18:36:07.429Z,89.18
2022-09-02T18:38:47.906Z,89.60
2022-09-02T18:41:39.338Z,92.32
2022-09-02T18:44:23.528Z,97.22
2022-09-02T18:47:03.561Z,89.88
2022-09-02T18:49:37.822Z,97.22
2022-09-02T18:52:11.591Z,105.03
2022-09-02T18:54:47.469Z,106.82
2022-09-02T18:57:16.956Z,89.25
2022-09-02T18:59:55.937Z,105.30
2022-09-02T19:02:35.808Z,96.90
2022-09-02T19:05:09.850Z,104.57
2022-09-02T19:07:57.784Z,106.22
2022-09-02T19:10:26.988Z,107.25
2022-09-02T19:12:58.835Z,102.30
2022-09-02T19:15:28.294Z,106.88
2022-09-02T19:17:59.913Z,117.47
2022-09-02T19:20:29.290Z,112.73
2022-09-02T19:22:59.558Z,103.88
2022-09-02T19:25:31.709Z,112.82
2022-09-02T19:28:03.342Z,106.38
2022-09-02T19:30:37.479Z,113.85
2022-09-02T19:33:13.950Z,104.78
2022-09-02T19:35:49.127Z,102.75
2022-09-02T19:38:20.977Z,109.38
2022-09-02T19:40:50.511Z,110.88
2022-09-02T19:43:20.427Z,108.85
2022-09-02T19:45:51.418Z,117.65
2022-09-02T19:48:22.910Z,106.75
2022-09-02T19:50:52.350Z,113.43
2022-09-02T19:53:27.972Z,106.95
2022-09-02T19:55:57.304Z,118.50
2022-09-02T19:58:29.285Z,119.07
2022-09-02T20:00:59.398Z,111.57
2022-09-02T20:03:30.482Z,114.07
2022-09-02T20:06:01.237Z,113.18
2022-09-02T20:08:34.585Z,112.18
2022-09-02T20:11:06.805Z,116.40
2022-09-02T20:13:41.442Z,115.43
2022-09-02T20:16:21.943Z,112.53
2022-09-02T20:18:56.949Z,107.13
2022-09-02T20:21:29.386Z,95.05
2022-09-02T20:24:04.825Z,112.00
2022-09-02T20:26:56.620Z,102.55
2022-09-02T20:29:43.337Z,102.63
2022-09-02T20:32:26.875Z,100.88
2022-09-02T20:35:12.670Z,113.72
2022-09-02T20:37:53.122Z,103.95
2022-09-02T20:40:46.021Z,101.13
2022-09-02T20:43:41.458Z,100.97
2022-09-02T20:46:29.237Z,97.10
2022-09-02T20:49:16.815Z,91.63
2022-09-02T20:52:01.011Z,86.90
2022-09-02T20:54:47.722Z,92.18
2022-09-02T20:57:35.488Z,81.53
2022-09-02T21:00:10.615Z,85.50
2022-09-02T21:02:50.040Z,83.57
2022-09-02T21:05:24.341Z,75.00
2022-09-02T21:08:04.238Z,75.45
2022-09-02T21:10:39.570Z,61.88
2022-09-02T21:13:16.753Z,74.97
2022-09-02T21:15:50.518Z,72.40
2022-09-02T21:18:27.819Z,73.72
2022-09-02T21:21:06.076Z,67.22
2022-09-02T21:23:42.996Z,69.72
2022-09-02T21:26:20.830Z,65.55
2022-09-02T21:28:58.186Z,70.03
2022-09-02T21:31:34.416Z,64.80
2022-09-02T21:34:12.392Z,61.45
2022-09-02T21:36:41.682Z,59.47
2022-09-02T21:39:19.286Z,61.20
2022-09-02T21:41:58.944Z,62.83
2022-09-02T21:44:43.614Z,58.33
2022-09-02T21:47:23.400Z,52.83
2022-09-02T21:50:11.142Z,58.63
2022-09-02T21:52:59.516Z,61.47
2022-09-02T21:55:49.752Z,47.80
2022-09-02T21:58:50.638Z,58.17
2022-09-02T22:01:35.453Z,53.38
2022-09-02T22:04:12.392Z,49.55
2022-09-02T22:06:46.199Z,48.30
2022-09-02T22:09:21.314Z,54.65
2022-09-02T22:12:00.131Z,52.13
2022-09-02T22:14:38.307Z,55.75
2022-09-02T22:17:17.310Z,51.88
2022-09-02T22:19:51.134Z,47.33
2022-09-02T22:22:24.602Z,45.80
2022-09-02T22:24:55.228Z,47.17
2022-09-02T22:27:34.306Z,49.97
2022-09-02T22:30:09.039Z,47.83
2022-09-02T22:32:42.021Z,46.72
2022-09-02T22:35:25.176Z,48.28
2022-09-02T22:38:02.534Z,45.65
2022-09-02T22:40:37.519Z,49.63
2022-09-02T22:43:15.259Z,48.65
2022-09-02T22:46:10.310Z,51.13
2022-09-02T22:49:01.046Z,47.65
2022-09-02T22:52:03.394Z,52.80
2022-09-02T22:54:32.639Z,44.67
2022-09-02T22:57:08.846Z,44.30
2022-09-02T22:59:57.257Z,52.50
2022-09-02T23:02:37.617Z,49.58
2022-09-02T23:05:45.514Z,53.65
2022-09-02T23:08:17.671Z,47.88
2022-09-02T23:13:37.460Z,43.55
2022-09-02T23:16:20.145Z,53.17
2022-09-02T23:21:41.157Z,41.78
2022-09-02T23:24:23.629Z,55.30
2022-09-02T23:27:03.854Z,64.57
2022-09-02T23:29:35.658Z,62.08
2022-09-02T23:32:43.830Z,66.65
2022-09-02T23:35:21.481Z,65.10
2022-09-02T23:38:11.875Z,80.85
2022-09-02T23:40:44.522Z,85.43
2022-09-02T23:43:16.726Z,111.78
2022-09-02T23:45:47.415Z,104.10
2022-09-02T23:48:39.598Z,111.22
2022-09-02T23:51:19.762Z,109.68
2022-09-02T23:54:19.469Z,116.05
2022-09-02T23:57:17.266Z,105.05
